sensor_id;sensor_type;location;lat;lon;timestamp;pressure;altitude;pressure_sealevel;temperature;humidity
10921;BME280;5513;50.580;8.818;2024-01-15T00:02:18;97834.94;;;0.33;100.00
10921;BME280;5513;50.580;8.818;2024-01-15T00:05:06;97832.09;;;0.18;100.00
10921;BME280;5513;50.580;8.818;2024-01-15T00:07:53;97820.75;;;0.01;100.00
10921;BME280;5513;50.580;8.818;2024-01-15T00:10:40;97822.94;;;-0.11;100.00
10921;BME280;5513;50.580;8.818;2024-01-15T00:13:27;97813.13;;;-0.04;100.00
10921;BME280;5513;50.580;8.818;2024-01-15T00:16:16;97808.50;;;-0.18;100.00
10921;BME280;5513;50.580;8.818;2024-01-15T00:19:03;97807.19;;;0.13;100.00
10921;BME280;5513;50.580;8.818;2024-01-15T00:21:50;97804.72;;;-0.11;100.00
10921;BME280;5513;50.580;8.818;2024-01-15T00:24:37;97805.41;;;0.13;100.00
10921;BME280;5513;50.580;8.818;2024-01-15T00:27:24;97794.16;;;0.13;100.00
10921;BME280;5513;50.580;8.818;2024-01-15T00:30:12;97791.13;;;0.03;100.00
10921;BME280;5513;50.580;8.818;2024-01-15T00:33:00;97788.66;;;0.00;100.00
10921;BME280;5513;50.580;8.818;2024-01-15T00:35:47;97795.56;;;0.01;100.00
10921;BME280;5513;50.580;8.818;2024-01-15T00:38:34;97798.47;;;0.14;100.00
10921;BME280;5513;50.580;8.818;2024-01-15T00:41:21;97789.38;;;0.04;100.00
10921;BME280;5513;50.580;8.818;2024-01-15T00:44:08;97785.44;;;0.14;100.00
10921;BME280;5513;50.580;8.818;2024-01-15T00:46:55;97789.28;;;0.44;100.00
10921;BME280;5513;50.580;8.818;2024-01-15T00:49:43;97790.25;;;0.23;100.00
10921;BME280;5513;50.580;8.818;2024-01-15T00:52:30;97778.50;;;0.33;100.00
10921;BME280;5513;50.580;8.818;2024-01-15T00:55:17;97780.66;;;0.23;100.00
10921;BME280;5513;50.580;8.818;2024-01-15T00:58:04;97787.94;;;-0.04;100.00
10921;BME280;5513;50.580;8.818;2024-01-15T01:00:51;97767.97;;;-0.03;100.00
10921;BME280;5513;50.580;8.818;2024-01-15T01:03:38;97769.81;;;0.14;100.00
10921;BME280;5513;50.580;8.818;2024-01-15T01:06:26;97768.25;;;-0.09;100.00
10921;BME280;5513;50.580;8.818;2024-01-15T01:09:15;97750.75;;;0.13;100.00
10921;BME280;5513;50.580;8.818;2024-01-15T01:12:02;97754.19;;;-0.05;100.00
10921;BME280;5513;50.580;8.818;2024-01-15T01:14:49;97747.91;;;-0.01;100.00
10921;BME280;5513;50.580;8.818;2024-01-15T01:17:36;97749.91;;;-0.26;100.00
10921;BME280;5513;50.580;8.818;2024-01-15T01:20:23;97740.66;;;-0.13;100.00
10921;BME280;5513;50.580;8.818;2024-01-15T01:23:11;97750.94;;;0.09;100.00
10921;BME280;5513;50.580;8.818;2024-01-15T01:25:58;97740.31;;;-0.06;100.00
10921;BME280;5513;50.580;8.818;2024-01-15T01:28:45;97739.50;;;-0.26;100.00
10921;BME280;5513;50.580;8.818;2024-01-15T01:31:32;97742.72;;;-0.01;100.00
10921;BME280;5513;50.580;8.818;2024-01-15T01:34:19;97743.84;;;-0.07;100.00
10921;BME280;5513;50.580;8.818;2024-01-15T01:37:06;97740.59;;;-0.12;100.00
10921;BME280;5513;50.580;8.818;2024-01-15T01:39:54;97742.16;;;-0.08;100.00
10921;BME280;5513;50.580;8.818;2024-01-15T01:42:41;97743.56;;;-0.01;100.00
10921;BME280;5513;50.580;8.818;2024-01-15T01:45:28;97746.66;;;0.08;100.00
10921;BME280;5513;50.580;8.818;2024-01-15T01:48:14;97751.69;;;0.31;100.00
10921;BME280;5513;50.580;8.818;2024-01-15T01:51:02;97751.78;;;0.48;100.00
10921;BME280;5513;50.580;8.818;2024-01-15T01:53:50;97740.84;;;0.40;100.00
10921;BME280;5513;50.580;8.818;2024-01-15T01:56:39;97752.03;;;0.61;100.00
10921;BME280;5513;50.580;8.818;2024-01-15T01:59:27;97750.47;;;0.38;100.00
10921;BME280;5513;50.580;8.818;2024-01-15T02:02:14;97740.84;;;0.59;100.00
10921;BME280;5513;50.580;8.818;2024-01-15T02:05:03;97746.56;;;0.48;100.00
10921;BME280;5513;50.580;8.818;2024-01-15T02:07:50;97736.56;;;0.39;100.00
10921;BME280;5513;50.580;8.818;2024-01-15T02:10:37;97735.72;;;0.39;100.00
10921;BME280;5513;50.580;8.818;2024-01-15T02:13:26;97732.63;;;0.49;100.00
10921;BME280;5513;50.580;8.818;2024-01-15T02:16:13;97725.72;;;0.48;100.00
10921;BME280;5513;50.580;8.818;2024-01-15T02:18:59;97728.03;;;0.17;100.00
10921;BME280;5513;50.580;8.818;2024-01-15T02:21:46;97725.56;;;0.14;100.00
10921;BME280;5513;50.580;8.818;2024-01-15T02:24:35;97746.56;;;0.11;100.00
10921;BME280;5513;50.580;8.818;2024-01-15T02:27:22;97740.91;;;0.01;100.00
10921;BME280;5513;50.580;8.818;2024-01-15T02:30:10;97737.06;;;0.10;100.00
10921;BME280;5513;50.580;8.818;2024-01-15T02:32:57;97736.41;;;0.05;100.00
10921;BME280;5513;50.580;8.818;2024-01-15T02:35:44;97739.34;;;-0.03;100.00
10921;BME280;5513;50.580;8.818;2024-01-15T02:38:35;97735.84;;;-0.22;100.00
10921;BME280;5513;50.580;8.818;2024-01-15T02:41:23;97738.91;;;-0.13;100.00
10921;BME280;5513;50.580;8.818;2024-01-15T02:44:10;97736.03;;;-0.07;100.00
10921;BME280;5513;50.580;8.818;2024-01-15T02:46:57;97740.97;;;0.18;100.00
10921;BME280;5513;50.580;8.818;2024-01-15T02:49:44;97739.22;;;0.00;100.00
10921;BME280;5513;50.580;8.818;2024-01-15T02:52:31;97740.53;;;0.09;100.00
10921;BME280;5513;50.580;8.818;2024-01-15T02:55:17;97742.53;;;0.04;100.00
10921;BME280;5513;50.580;8.818;2024-01-15T02:58:06;97730.31;;;-0.15;100.00
10921;BME280;5513;50.580;8.818;2024-01-15T03:00:52;97744.56;;;-0.23;100.00
10921;BME280;5513;50.580;8.818;2024-01-15T03:03:39;97732.72;;;-0.10;100.00
10921;BME280;5513;50.580;8.818;2024-01-15T03:06:26;97744.94;;;-0.12;100.00
10921;BME280;5513;50.580;8.818;2024-01-15T03:09:13;97744.66;;;-0.25;100.00
10921;BME280;5513;50.580;8.818;2024-01-15T03:12:00;97745.78;;;-0.12;100.00
10921;BME280;5513;50.580;8.818;2024-01-15T03:14:48;97752.34;;;-0.03;100.00
10921;BME280;5513;50.580;8.818;2024-01-15T03:17:35;97746.47;;;0.12;100.00
10921;BME280;5513;50.580;8.818;2024-01-15T03:20:22;97745.16;;;0.22;100.00
10921;BME280;5513;50.580;8.818;2024-01-15T03:23:08;97740.34;;;0.13;100.00
10921;BME280;5513;50.580;8.818;2024-01-15T03:25:55;97740.53;;;0.09;100.00
10921;BME280;5513;50.580;8.818;2024-01-15T03:28:42;97738.41;;;-0.02;100.00
10921;BME280;5513;50.580;8.818;2024-01-15T03:31:31;97732.00;;;-0.14;100.00
10921;BME280;5513;50.580;8.818;2024-01-15T03:34:18;97730.78;;;-0.25;100.00
10921;BME280;5513;50.580;8.818;2024-01-15T03:37:05;97738.81;;;-0.11;100.00
10921;BME280;5513;50.580;8.818;2024-01-15T03:39:52;97725.63;;;-0.07;100.00
10921;BME280;5513;50.580;8.818;2024-01-15T03:42:39;97726.91;;;0.04;100.00
10921;BME280;5513;50.580;8.818;2024-01-15T03:45:25;97735.66;;;0.21;100.00
10921;BME280;5513;50.580;8.818;2024-01-15T03:48:14;97732.38;;;-0.03;100.00
10921;BME280;5513;50.580;8.818;2024-01-15T03:51:01;97731.75;;;-0.08;100.00
10921;BME280;5513;50.580;8.818;2024-01-15T03:53:48;97733.56;;;0.09;100.00
10921;BME280;5513;50.580;8.818;2024-01-15T03:56:34;97731.97;;;0.07;100.00
10921;BME280;5513;50.580;8.818;2024-01-15T03:59:21;97731.84;;;0.10;100.00
10921;BME280;5513;50.580;8.818;2024-01-15T04:02:08;97720.22;;;0.17;100.00
10921;BME280;5513;50.580;8.818;2024-01-15T04:04:56;97720.53;;;0.11;100.00
10921;BME280;5513;50.580;8.818;2024-01-15T04:07:43;97732.84;;;-0.13;100.00
10921;BME280;5513;50.580;8.818;2024-01-15T04:10:30;97728.16;;;-0.05;100.00
10921;BME280;5513;50.580;8.818;2024-01-15T04:13:17;97718.09;;;0.06;100.00
10921;BME280;5513;50.580;8.818;2024-01-15T04:16:04;97732.03;;;0.05;100.00
10921;BME280;5513;50.580;8.818;2024-01-15T04:18:51;97722.88;;;-0.04;100.00
10921;BME280;5513;50.580;8.818;2024-01-15T04:21:39;97712.31;;;-0.01;100.00
10921;BME280;5513;50.580;8.818;2024-01-15T04:24:27;97720.19;;;-0.21;100.00
10921;BME280;5513;50.580;8.818;2024-01-15T04:27:14;97715.34;;;-0.10;100.00
10921;BME280;5513;50.580;8.818;2024-01-15T04:30:00;97723.88;;;-0.06;100.00
10921;BME280;5513;50.580;8.818;2024-01-15T04:32:47;97722.88;;;-0.04;100.00
10921;BME280;5513;50.580;8.818;2024-01-15T04:35:34;97709.59;;;0.03;100.00
10921;BME280;5513;50.580;8.818;2024-01-15T04:38:22;97718.84;;;0.10;100.00
10921;BME280;5513;50.580;8.818;2024-01-15T04:41:11;97717.41;;;0.03;100.00
10921;BME280;5513;50.580;8.818;2024-01-15T04:43:58;97705.25;;;0.03;100.00
10921;BME280;5513;50.580;8.818;2024-01-15T04:46:46;97719.38;;;-0.03;100.00
10921;BME280;5513;50.580;8.818;2024-01-15T04:49:33;97719.28;;;-0.01;100.00
10921;BME280;5513;50.580;8.818;2024-01-15T04:52:19;97708.53;;;-0.12;100.00
10921;BME280;5513;50.580;8.818;2024-01-15T04:55:08;97715.84;;;-0.02;100.00
10921;BME280;5513;50.580;8.818;2024-01-15T04:57:55;97712.06;;;0.06;100.00
10921;BME280;5513;50.580;8.818;2024-01-15T05:00:42;97723.81;;;0.14;100.00
10921;BME280;5513;50.580;8.818;2024-01-15T05:03:29;97718.84;;;0.10;100.00
10921;BME280;5513;50.580;8.818;2024-01-15T05:06:16;97721.44;;;0.10;100.00
10921;BME280;5513;50.580;8.818;2024-01-15T05:09:03;97707.53;;;0.09;100.00
10921;BME280;5513;50.580;8.818;2024-01-15T05:11:51;97709.63;;;0.21;100.00
10921;BME280;5513;50.580;8.818;2024-01-15T05:14:38;97711.28;;;0.04;100.00
10921;BME280;5513;50.580;8.818;2024-01-15T05:17:25;97697.09;;;-0.08;100.00
10921;BME280;5513;50.580;8.818;2024-01-15T05:20:12;97707.75;;;-0.14;100.00
10921;BME280;5513;50.580;8.818;2024-01-15T05:22:59;97704.66;;;-0.04;100.00
10921;BME280;5513;50.580;8.818;2024-01-15T05:25:46;97705.31;;;0.02;100.00
10921;BME280;5513;50.580;8.818;2024-01-15T05:28:34;97700.19;;;0.00;100.00
10921;BME280;5513;50.580;8.818;2024-01-15T05:31:21;97703.69;;;0.18;100.00
10921;BME280;5513;50.580;8.818;2024-01-15T05:34:07;97705.69;;;0.13;100.00
10921;BME280;5513;50.580;8.818;2024-01-15T05:36:54;97700.66;;;0.08;100.00
10921;BME280;5513;50.580;8.818;2024-01-15T05:39:41;97704.75;;;0.14;100.00
10921;BME280;5513;50.580;8.818;2024-01-15T05:42:28;97708.84;;;0.19;100.00
10921;BME280;5513;50.580;8.818;2024-01-15T05:45:17;97707.28;;;-0.04;100.00
10921;BME280;5513;50.580;8.818;2024-01-15T05:48:04;97699.47;;;-0.04;100.00
10921;BME280;5513;50.580;8.818;2024-01-15T05:50:51;97691.28;;;-0.15;100.00
10921;BME280;5513;50.580;8.818;2024-01-15T05:53:38;97691.19;;;-0.32;100.00
10921;BME280;5513;50.580;8.818;2024-01-15T05:56:28;97698.00;;;-0.30;100.00
10921;BME280;5513;50.580;8.818;2024-01-15T05:59:15;97702.06;;;-0.04;100.00
10921;BME280;5513;50.580;8.818;2024-01-15T06:02:04;97698.63;;;-0.04;100.00
10921;BME280;5513;50.580;8.818;2024-01-15T06:04:50;97696.72;;;-0.01;100.00
10921;BME280;5513;50.580;8.818;2024-01-15T06:07:37;97691.69;;;-0.24;100.00
10921;BME280;5513;50.580;8.818;2024-01-15T06:10:24;97679.91;;;-0.12;100.00
10921;BME280;5513;50.580;8.818;2024-01-15T06:13:10;97684.63;;;-0.02;100.00
10921;BME280;5513;50.580;8.818;2024-01-15T06:15:57;97680.56;;;-0.07;100.00
10921;BME280;5513;50.580;8.818;2024-01-15T06:18:45;97684.44;;;0.03;100.00
10921;BME280;5513;50.580;8.818;2024-01-15T06:21:32;97684.50;;;0.02;100.00
10921;BME280;5513;50.580;8.818;2024-01-15T06:24:19;97692.13;;;-0.14;100.00
10921;BME280;5513;50.580;8.818;2024-01-15T06:27:06;97695.00;;;-0.20;100.00
10921;BME280;5513;50.580;8.818;2024-01-15T06:29:53;97695.56;;;-0.33;100.00
10921;BME280;5513;50.580;8.818;2024-01-15T06:32:41;97685.00;;;-0.30;100.00
10921;BME280;5513;50.580;8.818;2024-01-15T06:35:29;97679.81;;;-0.30;100.00
10921;BME280;5513;50.580;8.818;2024-01-15T06:38:16;97672.91;;;-0.31;100.00
10921;BME280;5513;50.580;8.818;2024-01-15T06:41:03;97690.38;;;-0.53;100.00
10921;BME280;5513;50.580;8.818;2024-01-15T06:43:50;97682.69;;;-0.36;100.00
10921;BME280;5513;50.580;8.818;2024-01-15T06:46:37;97677.56;;;-0.37;100.00
10921;BME280;5513;50.580;8.818;2024-01-15T06:49:28;97682.03;;;-0.41;100.00
10921;BME280;5513;50.580;8.818;2024-01-15T06:52:17;97676.66;;;-0.36;100.00
10921;BME280;5513;50.580;8.818;2024-01-15T06:55:04;97674.63;;;-0.50;100.00
10921;BME280;5513;50.580;8.818;2024-01-15T06:57:51;97676.47;;;-0.52;100.00
10921;BME280;5513;50.580;8.818;2024-01-15T07:00:38;97683.28;;;-0.49;100.00
10921;BME280;5513;50.580;8.818;2024-01-15T07:03:25;97682.78;;;-0.57;100.00
10921;BME280;5513;50.580;8.818;2024-01-15T07:06:12;97685.31;;;-0.56;100.00
10921;BME280;5513;50.580;8.818;2024-01-15T07:09:01;97675.50;;;-0.70;100.00
10921;BME280;5513;50.580;8.818;2024-01-15T07:11:48;97669.38;;;-0.69;100.00
10921;BME280;5513;50.580;8.818;2024-01-15T07:14:35;97672.06;;;-0.70;100.00
10921;BME280;5513;50.580;8.818;2024-01-15T07:17:21;97682.59;;;-0.73;100.00
10921;BME280;5513;50.580;8.818;2024-01-15T07:20:09;97680.75;;;-0.71;100.00
10921;BME280;5513;50.580;8.818;2024-01-15T07:22:56;97677.16;;;-0.67;100.00
10921;BME280;5513;50.580;8.818;2024-01-15T07:25:44;97688.88;;;-0.59;100.00
10921;BME280;5513;50.580;8.818;2024-01-15T07:28:31;97698.31;;;-0.56;100.00
10921;BME280;5513;50.580;8.818;2024-01-15T07:31:18;97688.69;;;-0.54;100.00
10921;BME280;5513;50.580;8.818;2024-01-15T07:34:05;97698.31;;;-0.56;100.00
10921;BME280;5513;50.580;8.818;2024-01-15T07:36:52;97691.47;;;-0.38;100.00
10921;BME280;5513;50.580;8.818;2024-01-15T07:39:39;97688.38;;;-0.46;100.00
10921;BME280;5513;50.580;8.818;2024-01-15T07:42:31;97686.13;;;-0.35;100.00
10921;BME280;5513;50.580;8.818;2024-01-15T07:45:18;97682.75;;;-0.37;100.00
10921;BME280;5513;50.580;8.818;2024-01-15T07:48:06;97681.78;;;-0.35;100.00
10921;BME280;5513;50.580;8.818;2024-01-15T07:50:53;97686.22;;;-0.37;100.00
10921;BME280;5513;50.580;8.818;2024-01-15T07:53:40;97692.50;;;-0.42;100.00
10921;BME280;5513;50.580;8.818;2024-01-15T07:56:27;97690.16;;;-0.28;100.00
10921;BME280;5513;50.580;8.818;2024-01-15T07:59:15;97707.31;;;-0.24;100.00
10921;BME280;5513;50.580;8.818;2024-01-15T08:02:03;97691.69;;;-0.24;100.00
10921;BME280;5513;50.580;8.818;2024-01-15T08:04:50;97701.22;;;-0.04;100.00
10921;BME280;5513;50.580;8.818;2024-01-15T08:07:37;97691.03;;;0.10;100.00
10921;BME280;5513;50.580;8.818;2024-01-15T08:10:24;97691.94;;;0.09;100.00
10921;BME280;5513;50.580;8.818;2024-01-15T08:13:11;97688.50;;;0.09;100.00
10921;BME280;5513;50.580;8.818;2024-01-15T08:15:59;97680.56;;;0.12;100.00
10921;BME280;5513;50.580;8.818;2024-01-15T08:18:47;97685.28;;;0.22;100.00
10921;BME280;5513;50.580;8.818;2024-01-15T08:21:34;97686.31;;;0.18;100.00
10921;BME280;5513;50.580;8.818;2024-01-15T08:24:21;97675.69;;;0.23;100.00
10921;BME280;5513;50.580;8.818;2024-01-15T08:27:08;97673.78;;;0.26;100.00
10921;BME280;5513;50.580;8.818;2024-01-15T08:29:55;97664.78;;;0.34;100.00
10921;BME280;5513;50.580;8.818;2024-01-15T08:32:44;97665.59;;;0.53;100.00
10921;BME280;5513;50.580;8.818;2024-01-15T08:35:30;97676.03;;;0.53;100.00
10921;BME280;5513;50.580;8.818;2024-01-15T08:38:18;97655.63;;;0.44;100.00
10921;BME280;5513;50.580;8.818;2024-01-15T08:41:05;97658.63;;;0.53;100.00
10921;BME280;5513;50.580;8.818;2024-01-15T08:43:53;97652.56;;;0.53;100.00
10921;BME280;5513;50.580;8.818;2024-01-15T08:46:40;97651.72;;;0.52;100.00
10921;BME280;5513;50.580;8.818;2024-01-15T08:49:28;97654.53;;;0.48;100.00
10921;BME280;5513;50.580;8.818;2024-01-15T08:52:15;97654.63;;;0.46;100.00
10921;BME280;5513;50.580;8.818;2024-01-15T08:55:02;97652.28;;;0.59;100.00
10921;BME280;5513;50.580;8.818;2024-01-15T09:01:31;97651.00;;;0.68;100.00
10921;BME280;5513;50.580;8.818;2024-01-15T09:04:18;97660.38;;;0.89;100.00
10921;BME280;5513;50.580;8.818;2024-01-15T09:07:06;97661.69;;;0.98;100.00
10921;BME280;5513;50.580;8.818;2024-01-15T09:09:53;97662.59;;;0.79;100.00
10921;BME280;5513;50.580;8.818;2024-01-15T09:12:40;97657.22;;;0.82;100.00
10921;BME280;5513;50.580;8.818;2024-01-15T09:15:27;97651.78;;;0.87;100.00
10921;BME280;5513;50.580;8.818;2024-01-15T09:18:14;97649.31;;;0.84;100.00
10921;BME280;5513;50.580;8.818;2024-01-15T09:21:02;97658.06;;;1.00;100.00
10921;BME280;5513;50.580;8.818;2024-01-15T09:23:51;97661.06;;;0.93;100.00
10921;BME280;5513;50.580;8.818;2024-01-15T09:26:38;97669.94;;;0.89;100.00
10921;BME280;5513;50.580;8.818;2024-01-15T09:29:25;97668.88;;;1.27;100.00
10921;BME280;5513;50.580;8.818;2024-01-15T09:32:13;97660.91;;;1.30;100.00
10921;BME280;5513;50.580;8.818;2024-01-15T09:35:01;97654.84;;;1.12;100.00
10921;BME280;5513;50.580;8.818;2024-01-15T09:37:48;97660.53;;;1.03;100.00
10921;BME280;5513;50.580;8.818;2024-01-15T09:40:38;97653.09;;;1.13;100.00
10921;BME280;5513;50.580;8.818;2024-01-15T09:43:25;97652.63;;;1.05;100.00
10921;BME280;5513;50.580;8.818;2024-01-15T09:46:12;97660.97;;;0.94;100.00
10921;BME280;5513;50.580;8.818;2024-01-15T09:48:59;97662.66;;;1.12;100.00
10921;BME280;5513;50.580;8.818;2024-01-15T09:51:47;97662.59;;;1.31;100.00
10921;BME280;5513;50.580;8.818;2024-01-15T09:54:48;97644.03;;;1.20;100.00
10921;BME280;5513;50.580;8.818;2024-01-15T09:57:36;97642.53;;;1.16;100.00
10921;BME280;5513;50.580;8.818;2024-01-15T10:00:23;97644.03;;;1.37;100.00
10921;BME280;5513;50.580;8.818;2024-01-15T10:03:11;97649.63;;;1.30;100.00
10921;BME280;5513;50.580;8.818;2024-01-15T10:05:59;97639.13;;;1.31;100.00
10921;BME280;5513;50.580;8.818;2024-01-15T10:08:48;97643.09;;;1.38;100.00
10921;BME280;5513;50.580;8.818;2024-01-15T10:11:35;97644.63;;;1.25;100.00
10921;BME280;5513;50.580;8.818;2024-01-15T10:14:24;97624.94;;;1.20;100.00
10921;BME280;5513;50.580;8.818;2024-01-15T10:17:14;97633.69;;;1.19;100.00
10921;BME280;5513;50.580;8.818;2024-01-15T10:20:01;97620.00;;;1.31;100.00
10921;BME280;5513;50.580;8.818;2024-01-15T10:22:50;97623.56;;;1.30;100.00
10921;BME280;5513;50.580;8.818;2024-01-15T10:25:37;97623.50;;;1.64;100.00
10921;BME280;5513;50.580;8.818;2024-01-15T10:28:26;97619.81;;;2.00;100.00
10921;BME280;5513;50.580;8.818;2024-01-15T10:31:17;97614.19;;;2.23;100.00
10921;BME280;5513;50.580;8.818;2024-01-15T10:34:11;97604.25;;;2.76;100.00
10921;BME280;5513;50.580;8.818;2024-01-15T10:37:01;97600.56;;;3.38;100.00
10921;BME280;5513;50.580;8.818;2024-01-15T10:39:48;97575.34;;;4.61;100.00
10921;BME280;5513;50.580;8.818;2024-01-15T10:42:35;97572.28;;;6.32;100.00
10921;BME280;5513;50.580;8.818;2024-01-15T10:45:22;97568.19;;;7.11;100.00
10921;BME280;5513;50.580;8.818;2024-01-15T10:48:10;97562.28;;;6.38;100.00
10921;BME280;5513;50.580;8.818;2024-01-15T10:50:57;97546.34;;;4.77;100.00
10921;BME280;5513;50.580;8.818;2024-01-15T10:53:45;97536.06;;;4.07;100.00
10921;BME280;5513;50.580;8.818;2024-01-15T10:56:32;97520.91;;;3.71;100.00
10921;BME280;5513;50.580;8.818;2024-01-15T10:59:20;97522.34;;;3.48;100.00
10921;BME280;5513;50.580;8.818;2024-01-15T11:02:08;97515.72;;;3.28;100.00
10921;BME280;5513;50.580;8.818;2024-01-15T11:04:58;97519.59;;;3.07;100.00
10921;BME280;5513;50.580;8.818;2024-01-15T11:07:45;97519.09;;;2.72;100.00
10921;BME280;5513;50.580;8.818;2024-01-15T11:10:39;97520.63;;;2.60;100.00
10921;BME280;5513;50.580;8.818;2024-01-15T11:13:40;97523.25;;;2.60;100.00
10921;BME280;5513;50.580;8.818;2024-01-15T11:16:58;97518.81;;;2.32;100.00
10921;BME280;5513;50.580;8.818;2024-01-15T11:19:47;97526.56;;;2.34;100.00
10921;BME280;5513;50.580;8.818;2024-01-15T11:22:49;97526.38;;;2.21;100.00
10921;BME280;5513;50.580;8.818;2024-01-15T11:25:38;97532.56;;;1.88;100.00
10921;BME280;5513;50.580;8.818;2024-01-15T11:28:49;97524.03;;;2.32;100.00
10921;BME280;5513;50.580;8.818;2024-01-15T11:32:06;97526.81;;;2.59;100.00
10921;BME280;5513;50.580;8.818;2024-01-15T11:34:57;97517.88;;;2.33;100.00
10921;BME280;5513;50.580;8.818;2024-01-15T11:38:00;97518.41;;;2.24;100.00
10921;BME280;5513;50.580;8.818;2024-01-15T11:40:47;97524.94;;;2.31;100.00
10921;BME280;5513;50.580;8.818;2024-01-15T11:43:37;97521.88;;;2.39;100.00
10921;BME280;5513;50.580;8.818;2024-01-15T11:46:26;97520.84;;;2.11;100.00
10921;BME280;5513;50.580;8.818;2024-01-15T11:49:26;97523.91;;;1.88;100.00
10921;BME280;5513;50.580;8.818;2024-01-15T11:52:20;97531.00;;;1.86;100.00
10921;BME280;5513;50.580;8.818;2024-01-15T11:55:17;97525.25;;;1.95;100.00
10921;BME280;5513;50.580;8.818;2024-01-15T11:58:09;97536.88;;;2.05;100.00
10921;BME280;5513;50.580;8.818;2024-01-15T12:00:56;97534.81;;;2.10;100.00
10921;BME280;5513;50.580;8.818;2024-01-15T12:03:44;97531.13;;;2.14;100.00
10921;BME280;5513;50.580;8.818;2024-01-15T12:06:31;97541.13;;;2.22;100.00
10921;BME280;5513;50.580;8.818;2024-01-15T12:09:19;97532.28;;;2.24;100.00
10921;BME280;5513;50.580;8.818;2024-01-15T12:12:09;97529.19;;;2.48;100.00
10921;BME280;5513;50.580;8.818;2024-01-15T12:15:01;97526.66;;;2.62;100.00
10921;BME280;5513;50.580;8.818;2024-01-15T12:17:49;97530.41;;;2.72;100.00
10921;BME280;5513;50.580;8.818;2024-01-15T12:20:35;97541.00;;;2.99;100.00
10921;BME280;5513;50.580;8.818;2024-01-15T12:23:23;97543.25;;;2.61;100.00
10921;BME280;5513;50.580;8.818;2024-01-15T12:26:10;97534.19;;;2.52;100.00
10921;BME280;5513;50.580;8.818;2024-01-15T12:29:01;97541.91;;;2.84;100.00
10921;BME280;5513;50.580;8.818;2024-01-15T12:31:48;97541.00;;;3.56;100.00
10921;BME280;5513;50.580;8.818;2024-01-15T12:34:35;97538.94;;;3.04;100.00
10921;BME280;5513;50.580;8.818;2024-01-15T12:37:22;97537.53;;;2.54;100.00
10921;BME280;5513;50.580;8.818;2024-01-15T12:40:10;97537.22;;;2.45;100.00
10921;BME280;5513;50.580;8.818;2024-01-15T12:42:57;97538.94;;;2.30;100.00
10921;BME280;5513;50.580;8.818;2024-01-15T12:45:45;97544.47;;;2.70;100.00
10921;BME280;5513;50.580;8.818;2024-01-15T12:48:32;97517.72;;;3.66;100.00
10921;BME280;5513;50.580;8.818;2024-01-15T12:51:24;97531.16;;;3.88;100.00
10921;BME280;5513;50.580;8.818;2024-01-15T12:54:11;97532.66;;;3.78;100.00
10921;BME280;5513;50.580;8.818;2024-01-15T12:56:58;97537.53;;;3.56;100.00
10921;BME280;5513;50.580;8.818;2024-01-15T12:59:45;97538.31;;;3.58;100.00
10921;BME280;5513;50.580;8.818;2024-01-15T13:02:34;97531.13;;;3.33;100.00
10921;BME280;5513;50.580;8.818;2024-01-15T13:05:22;97538.09;;;3.47;100.00
10921;BME280;5513;50.580;8.818;2024-01-15T13:08:09;97541.94;;;3.55;100.00
10921;BME280;5513;50.580;8.818;2024-01-15T13:10:57;97541.69;;;4.01;100.00
10921;BME280;5513;50.580;8.818;2024-01-15T13:13:43;97547.38;;;3.52;100.00
10921;BME280;5513;50.580;8.818;2024-01-15T13:16:30;97545.78;;;3.50;100.00
10921;BME280;5513;50.580;8.818;2024-01-15T13:19:19;97543.34;;;3.04;100.00
10921;BME280;5513;50.580;8.818;2024-01-15T13:22:07;97545.81;;;2.77;100.00
10921;BME280;5513;50.580;8.818;2024-01-15T13:24:54;97544.97;;;2.76;100.00
10921;BME280;5513;50.580;8.818;2024-01-15T13:27:41;97542.97;;;2.66;100.00
10921;BME280;5513;50.580;8.818;2024-01-15T13:30:28;97549.75;;;2.84;100.00
10921;BME280;5513;50.580;8.818;2024-01-15T13:33:15;97555.03;;;3.12;100.00
10921;BME280;5513;50.580;8.818;2024-01-15T13:36:04;97563.66;;;2.99;100.00
10921;BME280;5513;50.580;8.818;2024-01-15T13:38:53;97558.06;;;2.91;100.00
10921;BME280;5513;50.580;8.818;2024-01-15T13:41:40;97556.13;;;2.94;100.00
10921;BME280;5513;50.580;8.818;2024-01-15T13:44:29;97561.28;;;3.10;100.00
10921;BME280;5513;50.580;8.818;2024-01-15T13:47:16;97569.22;;;3.23;100.00
10921;BME280;5513;50.580;8.818;2024-01-15T13:50:04;97562.41;;;3.63;100.00
10921;BME280;5513;50.580;8.818;2024-01-15T13:52:52;97555.78;;;3.43;100.00
10921;BME280;5513;50.580;8.818;2024-01-15T13:55:39;97553.19;;;3.29;100.00
10921;BME280;5513;50.580;8.818;2024-01-15T13:58:26;97545.09;;;3.17;100.00
10921;BME280;5513;50.580;8.818;2024-01-15T14:01:13;97549.09;;;4.21;100.00
10921;BME280;5513;50.580;8.818;2024-01-15T14:04:00;97551.38;;;7.59;100.00
10921;BME280;5513;50.580;8.818;2024-01-15T14:06:47;97547.38;;;9.16;100.00
10921;BME280;5513;50.580;8.818;2024-01-15T14:09:35;97543.78;;;10.69;92.08
10921;BME280;5513;50.580;8.818;2024-01-15T14:12:23;97544.88;;;10.56;75.44
10921;BME280;5513;50.580;8.818;2024-01-15T14:15:12;97539.88;;;9.42;73.60
10921;BME280;5513;50.580;8.818;2024-01-15T14:17:59;97525.53;;;10.06;71.95
10921;BME280;5513;50.580;8.818;2024-01-15T14:20:46;97530.09;;;9.33;68.87
10921;BME280;5513;50.580;8.818;2024-01-15T14:23:33;97538.22;;;8.47;72.50
10921;BME280;5513;50.580;8.818;2024-01-15T14:26:21;97539.56;;;8.30;75.21
10921;BME280;5513;50.580;8.818;2024-01-15T14:29:08;97540.47;;;7.52;79.37
10921;BME280;5513;50.580;8.818;2024-01-15T14:31:55;97547.03;;;5.44;90.29
10921;BME280;5513;50.580;8.818;2024-01-15T14:34:42;97539.06;;;4.55;100.00
10921;BME280;5513;50.580;8.818;2024-01-15T14:37:29;97551.78;;;3.93;100.00
10921;BME280;5513;50.580;8.818;2024-01-15T14:40:16;97564.38;;;3.45;100.00
10921;BME280;5513;50.580;8.818;2024-01-15T14:43:05;97561.03;;;3.29;100.00
10921;BME280;5513;50.580;8.818;2024-01-15T14:45:54;97567.06;;;3.01;100.00
10921;BME280;5513;50.580;8.818;2024-01-15T14:48:42;97578.16;;;3.04;100.00
10921;BME280;5513;50.580;8.818;2024-01-15T14:51:31;97575.59;;;2.88;100.00
10921;BME280;5513;50.580;8.818;2024-01-15T14:54:17;97586.66;;;2.94;100.00
10921;BME280;5513;50.580;8.818;2024-01-15T14:57:08;97585.69;;;2.80;100.00
10921;BME280;5513;50.580;8.818;2024-01-15T14:59:56;97596.19;;;2.65;100.00
10921;BME280;5513;50.580;8.818;2024-01-15T15:02:42;97600.34;;;2.53;100.00